Time;durP1;ratioP1;P1;durP2;ratioP2;P2;SDS_P1;SDS_P2;PMS_P1;PMS_P2;Temp;Humidity;BMP_temperature;BMP_pressure;BME280_temperature;BME280_humidity;BME280_pressure;Samples;Min_cycle;Max_cycle;Signal;HPM_P1;HPM_P2
2023/04/30 00:01:51;;;;;;;23.00;18.00;;;;;;;14.39;71.46;98839.45;223723;183;147818;-72
2023/04/30 00:06:54;;;;;;;21.30;16.70;;;;;;;14.43;71.51;98839.70;223610;184;139294;-71
2023/04/30 00:11:57;;;;;;;18.30;15.40;;;;;;;14.36;71.41;98840.75;223602;184;137491;-72
2023/04/30 00:17:01;;;;;;;21.50;15.20;;;;;;;14.29;71.61;98838.14;223463;183;146754;-75
2023/04/30 00:22:05;;;;;;;19.70;14.70;;;;;;;14.32;71.64;98838.58;223680;183;138964;-66
2023/04/30 00:27:08;;;;;;;21.10;14.30;;;;;;;14.37;71.59;98838.70;223631;183;137920;-65
2023/04/30 00:32:11;;;;;;;17.60;13.50;;;;;;;14.37;71.27;98839.80;223666;183;148735;-68
2023/04/30 00:37:14;;;;;;;17.70;12.80;;;;;;;14.34;71.28;98836.30;223638;182;140050;-67
2023/04/30 00:42:17;;;;;;;15.10;12.70;;;;;;;14.29;71.23;98840.59;223678;183;137487;-67
2023/04/30 00:47:20;;;;;;;16.50;11.80;;;;;;;14.27;71.35;98842.42;223643;183;147087;-68
2023/04/30 00:52:24;;;;;;;16.10;11.60;;;;;;;14.25;71.44;98850.75;223592;183;138108;-66
2023/04/30 00:57:28;;;;;;;17.50;12.60;;;;;;;14.29;71.37;98855.60;223730;183;140091;-68
2023/04/30 01:02:31;;;;;;;14.90;12.70;;;;;;;14.25;71.38;98852.73;223459;182;146799;-68
2023/04/30 01:07:37;;;;;;;13.90;12.00;;;;;;;14.26;71.52;98854.25;223643;183;138460;-66
2023/04/30 01:13:03;;;;;;;14.00;11.30;;;;;;;14.25;71.56;98854.70;223678;183;136850;-66
2023/04/30 01:18:11;;;;;;;11.20;9.80;;;;;;;14.22;71.81;98852.30;223642;184;147983;-67
2023/04/30 01:23:35;;;;;;;12.30;10.80;;;;;;;14.19;71.91;98847.88;223589;183;138895;-69
2023/04/30 01:28:41;;;;;;;12.20;10.00;;;;;;;14.22;72.08;98852.27;223635;183;138199;-67
2023/04/30 01:33:44;;;;;;;;;;;;;;;14.21;72.17;98855.00;223591;184;147093;-66
2023/04/30 01:39:08;;;;;;;11.90;10.20;;;;;;;14.24;72.12;98854.43;223592;183;138467;-66
2023/04/30 01:44:40;;;;;;;14.40;10.90;;;;;;;14.21;72.08;98857.16;223625;183;138276;-65
2023/04/30 01:50:16;;;;;;;13.00;11.00;;;;;;;14.10;72.25;98858.08;223558;183;148727;-61
2023/04/30 01:55:23;;;;;;;11.60;10.40;;;;;;;14.05;72.38;98858.25;223610;183;138484;-66
2023/04/30 02:00:29;;;;;;;14.90;11.70;;;;;;;14.11;72.49;98862.41;223733;183;138215;-66
2023/04/30 02:05:32;;;;;;;13.20;11.10;;;;;;;14.12;72.28;98866.30;223631;183;149127;-64
2023/04/30 02:10:36;;;;;;;12.70;11.30;;;;;;;14.12;72.16;98869.11;223659;183;138389;-65
2023/04/30 02:15:39;;;;;;;14.10;12.60;;;;;;;14.09;72.06;98871.66;223675;183;137594;-69
2023/04/30 02:20:42;;;;;;;14.10;11.00;;;;;;;14.06;72.18;98870.17;223552;182;147435;-64
2023/04/30 02:25:46;;;;;;;12.70;10.40;;;;;;;14.02;72.10;98871.33;223516;184;138239;-69
2023/04/30 02:30:49;;;;;;;12.10;10.10;;;;;;;14.02;72.09;98873.46;223658;183;139976;-67
2023/04/30 02:35:54;;;;;;;12.50;10.80;;;;;;;14.01;72.09;98875.52;223577;183;147150;-68
2023/04/30 02:40:57;;;;;;;12.80;10.10;;;;;;;13.99;72.00;98876.00;223644;183;138692;-68
2023/04/30 02:46:00;;;;;;;13.00;11.20;;;;;;;13.97;71.87;98881.91;223630;183;138826;-66
2023/04/30 02:51:04;;;;;;;12.30;10.10;;;;;;;13.92;71.96;98881.73;223615;182;148945;-65
2023/04/30 02:56:07;;;;;;;10.30;7.90;;;;;;;13.91;72.10;98884.36;223448;184;139393;-63
2023/04/30 03:01:10;;;;;;;11.70;8.80;;;;;;;13.92;71.75;98884.80;223595;183;137799;-64
2023/04/30 03:06:13;;;;;;;11.70;9.90;;;;;;;13.92;71.60;98890.48;223694;184;147107;-63
2023/04/30 03:11:16;;;;;;;12.40;10.10;;;;;;;13.91;71.61;98895.70;223719;183;138499;-64
2023/04/30 03:16:20;;;;;;;12.30;10.30;;;;;;;13.90;71.51;98897.24;223710;183;136963;-65
2023/04/30 03:21:23;;;;;;;11.10;8.90;;;;;;;13.82;71.58;98900.35;223548;183;147537;-66
2023/04/30 03:26:27;;;;;;;10.80;8.30;;;;;;;13.81;71.46;98907.81;223538;183;138288;-71
2023/04/30 03:31:31;;;;;;;11.00;7.40;;;;;;;13.80;71.43;98911.41;223619;184;138428;-72
2023/04/30 03:36:34;;;;;;;8.70;6.00;;;;;;;13.88;71.19;98913.80;223678;183;146882;-67
2023/04/30 03:41:37;;;;;;;5.90;4.80;;;;;;;13.88;70.85;98912.95;223720;183;138940;-69
2023/04/30 03:46:43;;;;;;;6.40;4.90;;;;;;;13.80;70.72;98919.80;223711;184;137134;-73
2023/04/30 03:51:46;;;;;;;6.20;4.90;;;;;;;13.74;70.83;98927.06;223606;183;147214;-68
2023/04/30 03:56:50;;;;;;;6.30;4.80;;;;;;;13.69;70.87;98937.95;223690;179;138723;-72
2023/04/30 04:07:23;;;;;;;9.10;5.80;;;;;;;13.72;71.08;98942.90;220595;189;678819;-69
2023/04/30 04:12:26;;;;;;;6.90;5.30;;;;;;;13.77;70.83;98954.61;223638;184;136154;-68
2023/04/30 04:17:29;;;;;;;6.20;5.30;;;;;;;13.73;70.68;98963.14;223591;184;143602;-71
2023/04/30 04:22:32;;;;;;;9.00;4.80;;;;;;;13.71;70.84;98965.55;223596;185;138330;-71
2023/04/30 04:27:37;;;;;;;4.60;3.80;;;;;;;13.67;70.79;98973.73;223582;185;139778;-65
2023/04/30 04:32:47;;;;;;;4.10;3.70;;;;;;;13.66;70.70;98975.43;223544;185;143956;-68
2023/04/30 04:37:50;;;;;;;5.30;4.30;;;;;;;13.71;70.46;98989.85;223442;185;138234;-67
2023/04/30 04:42:54;;;;;;;7.00;5.50;;;;;;;13.71;70.05;98997.66;223663;184;136331;-68
2023/04/30 04:47:57;;;;;;;8.60;4.20;;;;;;;13.70;69.75;99004.17;223583;184;144398;-68
2023/04/30 04:53:02;;;;;;;3.50;3.10;;;;;;;13.61;68.98;99014.11;223626;184;138928;-71
2023/04/30 04:58:05;;;;;;;3.80;3.40;;;;;;;13.50;68.68;99020.80;223873;182;139400;-63
2023/04/30 05:03:09;;;;;;;3.30;2.70;;;;;;;13.38;68.56;99027.99;223767;182;145894;-70
2023/04/30 05:08:12;;;;;;;41.70;34.20;;;;;;;13.31;68.08;99034.16;223774;182;138132;-70
2023/04/30 05:13:15;;;;;;;50.50;42.00;;;;;;;13.30;67.78;99043.34;223815;182;136612;-73
2023/04/30 05:18:19;;;;;;;99.40;81.90;;;;;;;13.30;67.54;99056.52;223760;182;145429;-70
2023/04/30 05:23:23;;;;;;;2.30;2.10;;;;;;;13.20;67.06;99071.11;223685;182;139393;-70
2023/04/30 05:28:26;;;;;;;1.60;1.50;;;;;;;13.10;67.14;99075.22;223684;183;137035;-71
2023/04/30 05:33:29;;;;;;;2.00;1.80;;;;;;;13.04;67.18;99080.79;223789;182;145480;-68
2023/04/30 05:38:32;;;;;;;2.90;2.50;;;;;;;12.96;66.33;99087.04;223678;183;138248;-64
2023/04/30 05:43:35;;;;;;;4.60;3.80;;;;;;;12.87;66.30;99094.99;223781;182;137707;-68
2023/04/30 05:48:38;;;;;;;6.50;5.00;;;;;;;12.81;65.73;99113.23;223746;181;146138;-67
2023/04/30 05:53:42;;;;;;;8.90;7.30;;;;;;;12.81;65.74;99124.48;223742;182;138392;-67
2023/04/30 05:58:45;;;;;;;11.90;7.90;;;;;;;12.81;65.48;99129.97;223738;181;136897;-71
2023/04/30 06:03:48;;;;;;;10.90;7.50;;;;;;;12.75;64.89;99137.55;223731;182;145264;-68
2023/04/30 06:08:51;;;;;;;11.90;7.90;;;;;;;12.67;64.72;99145.57;223736;182;140071;-65
2023/04/30 06:13:54;;;;;;;13.00;9.50;;;;;;;12.65;64.32;99148.92;223860;182;139855;-66
2023/04/30 06:18:57;;;;;;;11.70;8.80;;;;;;;12.60;64.09;99153.89;223753;182;145123;-67
2023/04/30 06:24:01;;;;;;;13.90;8.30;;;;;;;12.49;63.48;99165.77;223690;181;139676;-65
2023/04/30 06:29:04;;;;;;;11.30;7.80;;;;;;;12.41;63.14;99166.35;223687;182;136718;-70
2023/04/30 06:34:07;;;;;;;11.10;7.90;;;;;;;12.33;63.53;99172.61;223776;182;145008;-69
2023/04/30 06:39:13;;;;;;;14.20;9.40;;;;;;;12.23;63.35;99177.70;223606;181;138461;-71
2023/04/30 06:44:17;;;;;;;12.30;8.50;;;;;;;12.19;63.42;99183.81;223814;182;137671;-70
2023/04/30 06:49:21;;;;;;;11.10;8.30;;;;;;;12.07;63.44;99194.42;223857;182;145612;-70
2023/04/30 06:54:26;;;;;;;10.90;7.40;;;;;;;12.00;63.71;99197.88;223679;181;138374;-66
2023/04/30 06:59:30;;;;;;;8.60;6.20;;;;;;;11.94;63.09;99203.27;223810;182;267060;-68
2023/04/30 07:04:33;;;;;;;11.20;6.60;;;;;;;11.91;62.03;99207.55;223560;181;145932;-70
2023/04/30 07:09:36;;;;;;;8.20;5.40;;;;;;;11.93;61.83;99213.46;223760;181;138042;-70
2023/04/30 07:14:39;;;;;;;8.10;6.20;;;;;;;11.97;61.56;99219.42;223742;182;139577;-71
2023/04/30 07:19:42;;;;;;;8.60;6.20;;;;;;;12.09;61.53;99223.46;223883;182;145257;-70
2023/04/30 07:24:46;;;;;;;28.20;22.20;;;;;;;12.19;61.05;99226.16;223718;182;138627;-68
2023/04/30 07:29:50;;;;;;;8.50;5.70;;;;;;;12.23;61.09;99234.08;223714;182;137341;-71
2023/04/30 07:34:53;;;;;;;9.50;6.30;;;;;;;12.30;61.01;99237.17;223749;182;145675;-70
2023/04/30 07:39:56;;;;;;;9.60;5.90;;;;;;;12.37;60.88;99243.72;223735;182;138544;-69
2023/04/30 07:44:59;;;;;;;11.20;5.70;;;;;;;12.44;60.42;99248.02;223785;182;136404;-70
2023/04/30 07:50:03;;;;;;;11.80;5.70;;;;;;;12.49;60.22;99253.55;223746;182;145416;-74
2023/04/30 07:55:07;;;;;;;7.20;5.60;;;;;;;12.49;60.02;99254.24;223686;182;154371;-73
2023/04/30 08:00:11;;;;;;;57.50;43.00;;;;;;;12.58;59.92;99259.55;223729;182;136973;-70
2023/04/30 08:05:14;;;;;;;13.00;9.40;;;;;;;12.73;59.93;99260.70;223751;182;145192;-72
2023/04/30 08:10:17;;;;;;;8.00;5.80;;;;;;;12.83;58.61;99261.94;223688;182;139081;-73
2023/04/30 08:15:20;;;;;;;7.70;5.00;;;;;;;12.96;57.31;99255.75;223739;181;138250;-73
2023/04/30 08:20:26;;;;;;;7.00;4.80;;;;;;;13.16;57.12;99258.65;223871;182;145323;-73
2023/04/30 08:25:30;;;;;;;7.70;4.60;;;;;;;13.35;57.73;99262.83;223731;182;138370;-72
2023/04/30 08:30:33;;;;;;;11.70;5.50;;;;;;;13.52;56.38;99261.48;223744;182;139935;-68
2023/04/30 08:35:36;;;;;;;9.40;4.30;;;;;;;13.65;56.48;99261.98;223552;181;145328;-61
2023/04/30 08:40:40;;;;;;;6.90;4.70;;;;;;;13.92;57.25;99263.48;223783;182;140056;-66
2023/04/30 08:45:49;;;;;;;9.90;4.40;;;;;;;14.24;54.53;99266.81;223726;182;137496;-64
2023/04/30 08:50:53;;;;;;;83.60;62.10;;;;;;;14.41;55.44;99266.48;223813;182;231690;-65
2023/04/30 08:55:58;;;;;;;17.70;12.20;;;;;;;15.03;54.40;99268.38;223740;182;138406;-65
2023/04/30 09:01:06;;;;;;;11.60;7.80;;;;;;;15.43;54.23;99268.19;223846;182;138001;-68
2023/04/30 09:06:13;;;;;;;15.10;9.80;;;;;;;15.76;51.90;99271.31;223665;181;145302;-72
2023/04/30 09:11:25;;;;;;;6.50;5.10;;;;;;;15.62;49.42;99275.52;223723;181;138915;-72
2023/04/30 09:16:56;;;;;;;7.50;4.60;;;;;;;15.47;50.66;99276.83;223752;182;137413;-71
2023/04/30 09:22:20;;;;;;;6.20;4.20;;;;;;;15.46;51.01;99272.42;223811;182;145669;-71
2023/04/30 09:27:23;;;;;;;8.30;4.20;;;;;;;15.61;50.87;99270.55;223830;182;138866;-71
2023/04/30 09:32:27;;;;;;;7.60;5.10;;;;;;;15.75;49.19;99274.29;223756;182;136609;-69
2023/04/30 09:37:38;;;;;;;133.90;105.10;;;;;;;15.96;50.42;99267.03;223789;182;145551;-69
2023/04/30 09:42:58;;;;;;;7.80;4.50;;;;;;;16.16;49.96;99268.08;223665;181;138447;-70
2023/04/30 09:48:02;;;;;;;7.60;5.30;;;;;;;16.09;47.33;99272.10;223765;182;136496;-71
2023/04/30 09:53:19;;;;;;;5.70;3.50;;;;;;;16.03;47.66;99273.27;223816;182;147044;-72
2023/04/30 09:58:28;;;;;;;3.40;3.10;;;;;;;16.00;46.53;99274.77;223654;183;138925;-69
2023/04/30 10:03:32;;;;;;;12.90;7.50;;;;;;;16.24;47.74;99265.33;223680;182;137061;-68
2023/04/30 10:08:42;;;;;;;4.70;3.20;;;;;;;16.52;46.80;99261.23;223786;181;145602;-67
2023/04/30 10:13:56;;;;;;;210.60;148.70;;;;;;;16.66;46.48;99256.27;223678;181;138085;-68
2023/04/30 10:19:06;;;;;;;6.20;4.00;;;;;;;16.86;46.58;99256.45;223808;182;137306;-70
2023/04/30 10:24:11;;;;;;;5.00;2.90;;;;;;;16.76;44.22;99253.66;223682;182;145715;-67
2023/04/30 10:29:15;;;;;;;;;;;;;;;17.03;44.33;99254.23;223764;182;138433;-67
2023/04/30 10:34:30;;;;;;;8.00;2.70;;;;;;;17.37;43.25;99251.33;223845;182;129753;-68
2023/04/30 10:39:36;;;;;;;4.00;2.10;;;;;;;17.58;39.99;99245.90;223636;181;145468;-67
2023/04/30 10:44:39;;;;;;;6.00;2.70;;;;;;;17.79;41.40;99236.92;223776;182;138882;-68
2023/04/30 10:49:48;;;;;;;7.20;2.70;;;;;;;17.93;42.12;99235.87;223665;181;136816;-67
2023/04/30 10:54:51;;;;;;;4.60;2.30;;;;;;;18.26;42.61;99236.60;223773;182;145669;-68
2023/04/30 11:00:06;;;;;;;5.10;2.90;;;;;;;18.66;41.17;99233.22;223812;182;139486;-67
2023/04/30 11:05:10;;;;;;;;;;;;;;;18.78;38.39;99228.88;223813;182;137111;-67
2023/04/30 11:10:14;;;;;;;5.70;3.10;;;;;;;18.85;38.79;99226.56;223825;182;145769;-68
2023/04/30 11:15:23;;;;;;;5.30;2.30;;;;;;;19.02;38.93;99228.73;223642;182;139128;-68
2023/04/30 11:20:27;;;;;;;2.70;2.10;;;;;;;19.34;38.88;99221.94;223676;182;136745;-68
2023/04/30 11:25:47;;;;;;;6.70;2.20;;;;;;;19.61;39.01;99219.33;223744;181;145938;-68
2023/04/30 11:30:51;;;;;;;5.40;2.20;;;;;;;19.79;36.35;99220.89;223696;182;138456;-68
2023/04/30 11:35:56;;;;;;;6.10;3.90;;;;;;;19.88;35.38;99220.72;223700;181;136637;-70
2023/04/30 11:41:00;;;;;;;;;;;;;;;19.97;36.22;99220.34;223676;182;145777;-71
2023/04/30 11:46:09;;;;;;;4.30;2.60;;;;;;;20.07;37.62;99225.72;223719;181;138403;-64
2023/04/30 11:51:20;;;;;;;10.70;4.70;;;;;;;20.35;38.46;99226.53;223803;182;136706;-68
2023/04/30 11:56:24;;;;;;;56.40;42.70;;;;;;;20.42;37.56;99222.72;223708;182;146078;-68
2023/04/30 12:01:27;;;;;;;9.90;5.30;;;;;;;20.41;37.33;99219.57;223730;182;138375;-69
2023/04/30 12:06:31;;;;;;;8.90;3.90;;;;;;;20.66;37.55;99227.95;223797;182;136718;-70
2023/04/30 12:11:35;;;;;;;6.70;3.30;;;;;;;20.90;37.41;99220.29;223704;182;146336;-68
2023/04/30 12:16:44;;;;;;;7.20;2.90;;;;;;;21.14;35.63;99222.13;223741;182;140072;-70
2023/04/30 12:21:48;;;;;;;3.60;2.30;;;;;;;21.29;36.15;99221.33;223755;182;137092;-72
2023/04/30 12:26:52;;;;;;;4.50;2.10;;;;;;;21.41;35.03;99223.30;223772;182;145326;-68
2023/04/30 12:31:56;;;;;;;4.60;2.70;;;;;;;21.59;33.33;99219.27;223730;182;140545;-69
2023/04/30 12:37:01;;;;;;;4.60;2.10;;;;;;;21.77;33.39;99215.96;223756;182;137756;-69
2023/04/30 12:42:04;;;;;;;5.90;2.50;;;;;;;21.94;33.66;99209.40;223659;181;147697;-69
2023/04/30 12:47:08;;;;;;;3.80;2.00;;;;;;;22.09;33.24;99206.17;223661;182;139465;-71
2023/04/30 12:52:12;;;;;;;4.40;2.20;;;;;;;22.20;33.14;99199.80;223674;183;136743;-69
2023/04/30 12:57:16;;;;;;;28.30;21.80;;;;;;;22.24;33.43;99197.19;223664;181;147937;-69
2023/04/30 13:02:23;;;;;;;7.00;2.80;;;;;;;22.36;32.73;99193.70;223604;182;138441;-68
2023/04/30 13:07:37;;;;;;;20.00;15.60;;;;;;;22.39;32.07;99195.90;223616;182;137648;-70
2023/04/30 13:12:47;;;;;;;78.90;55.50;;;;;;;22.58;32.16;99190.36;223697;182;147337;-71
2023/04/30 13:17:52;;;;;;;7.10;3.90;;;;;;;22.73;32.19;99190.81;223716;182;138919;-69
2023/04/30 13:22:56;;;;;;;7.50;3.00;;;;;;;22.83;31.53;99186.58;223534;183;137356;-67
2023/04/30 13:27:59;;;;;;;7.30;4.50;;;;;;;22.86;31.23;99190.70;223588;182;147227;-68
2023/04/30 13:33:02;;;;;;;5.50;2.90;;;;;;;22.93;31.36;99191.50;223540;181;139247;-68
2023/04/30 13:38:06;;;;;;;4.10;2.30;;;;;;;22.96;31.35;99188.48;223679;182;136931;-67
2023/04/30 13:43:09;;;;;;;13.50;3.40;;;;;;;23.06;33.21;99181.92;223605;182;148732;-68
2023/04/30 13:48:12;;;;;;;4.90;2.20;;;;;;;23.05;30.97;99182.58;223618;182;138390;-68
2023/04/30 13:53:15;;;;;;;5.10;2.00;;;;;;;23.15;30.01;99183.17;223626;182;136831;-69
2023/04/30 13:58:19;;;;;;;65.40;53.70;;;;;;;23.31;30.46;99180.80;223597;182;148690;-70
2023/04/30 14:03:22;;;;;;;7.20;3.80;;;;;;;23.29;29.87;99174.52;223704;181;140013;-70
2023/04/30 14:08:25;;;;;;;6.20;2.60;;;;;;;23.19;29.89;99178.45;223697;182;137157;-68
2023/04/30 14:13:28;;;;;;;5.30;2.30;;;;;;;23.13;30.34;99181.59;223609;182;147172;-67
2023/04/30 14:18:32;;;;;;;4.00;2.10;;;;;;;23.05;29.71;99178.41;223597;182;139774;-67
2023/04/30 16:25:34;;;;;;;3.70;1.60;;;;;;;21.76;26.29;99216.05;219426;193;665228;-65
2023/04/30 16:30:38;;;;;;;4.70;1.50;;;;;;;20.97;26.61;99221.89;221646;179;136675;-67
2023/04/30 16:35:42;;;;;;;3.40;1.60;;;;;;;20.34;26.93;99224.46;221426;180;143953;-65
2023/04/30 16:40:46;;;;;;;4.70;1.80;;;;;;;19.71;27.54;99233.69;221405;180;139193;-65
2023/04/30 16:45:50;;;;;;;5.40;1.80;;;;;;;19.13;27.80;99235.45;221427;180;141111;-66
2023/04/30 16:50:54;;;;;;;4.50;1.70;;;;;;;18.72;27.91;99238.02;221623;181;144120;-66
2023/04/30 16:55:57;;;;;;;4.20;1.60;;;;;;;18.37;28.24;99245.20;221271;180;139842;-66
2023/04/30 17:01:00;;;;;;;5.30;1.90;;;;;;;17.98;28.37;99247.42;224031;180;136367;-67
2023/04/30 17:06:04;;;;;;;4.90;1.60;;;;;;;17.70;29.55;99252.34;224137;180;144008;-66
2023/04/30 17:11:08;;;;;;;2.70;1.50;;;;;;;17.43;29.21;99255.83;224039;180;138469;-66
2023/04/30 17:16:13;;;;;;;3.20;1.20;;;;;;;17.16;28.40;99260.70;224121;180;138823;-65
2023/04/30 17:25:30;;;;;;;5.70;1.70;;;;;;;16.79;28.05;99269.89;221719;193;666166;-86
2023/04/30 17:30:49;;;;;;;3.00;1.50;;;;;;;16.61;28.35;99271.89;223678;183;136249;-88
2023/04/30 17:35:55;;;;;;;3.20;1.40;;;;;;;16.45;28.60;99281.15;223713;183;145013;-70
2023/04/30 17:40:58;;;;;;;42.00;37.20;;;;;;;16.31;28.82;99290.11;223783;183;138930;-67
2023/04/30 17:46:02;;;;;;;5.80;2.80;;;;;;;16.27;29.87;99292.27;222667;182;136739;-71
2023/04/30 17:51:06;;;;;;;4.60;2.00;;;;;;;16.32;31.57;99299.55;222687;182;143854;-69
2023/04/30 17:56:11;;;;;;;4.20;1.90;;;;;;;16.46;32.40;99305.21;223740;182;138133;-66
2023/04/30 18:01:14;;;;;;;3.10;1.80;;;;;;;16.63;32.51;99308.52;223769;183;136544;-67
2023/04/30 18:06:17;;;;;;;3.50;1.70;;;;;;;16.43;29.86;99311.90;223251;182;143416;-65
2023/04/30 18:11:20;;;;;;;3.10;1.70;;;;;;;16.13;30.55;99315.94;223797;183;139470;-69
2023/04/30 18:16:23;;;;;;;3.50;2.00;;;;;;;15.85;30.81;99318.73;223855;182;136505;-70
2023/04/30 18:21:26;;;;;;;3.70;1.90;;;;;;;15.61;31.35;99325.79;223753;182;146550;-67
2023/04/30 18:26:30;;;;;;;7.70;2.70;;;;;;;15.45;32.39;99333.13;223650;184;138613;-68
2023/04/30 18:31:35;;;;;;;5.60;2.60;;;;;;;15.32;31.55;99340.05;223731;183;139674;-67
2023/04/30 18:36:41;;;;;;;6.20;2.50;;;;;;;15.12;31.59;99346.18;223658;183;145308;-65
2023/04/30 18:41:45;;;;;;;38.90;30.70;;;;;;;14.97;32.14;99351.66;223668;183;138444;-67
2023/04/30 18:46:47;;;;;;;7.40;2.40;;;;;;;14.88;33.05;99354.45;223613;183;136801;-67
2023/04/30 18:51:53;;;;;;;4.80;2.50;;;;;;;14.76;32.55;99366.75;223692;183;145345;-66
2023/04/30 18:56:57;;;;;;;5.20;2.20;;;;;;;14.67;33.15;99370.82;223610;183;138412;-64
2023/04/30 19:02:00;;;;;;;7.00;2.70;;;;;;;14.59;32.68;99370.16;223648;184;136602;-68
2023/04/30 19:07:03;;;;;;;4.70;2.40;;;;;;;14.47;32.50;99375.98;223654;183;146329;-67
2023/04/30 19:12:09;;;;;;;4.50;2.40;;;;;;;14.35;33.26;99385.04;223614;183;137652;-63
2023/04/30 19:17:17;;;;;;;6.60;2.30;;;;;;;14.25;33.49;99389.90;223702;183;136338;-66
2023/04/30 19:22:23;;;;;;;5.40;2.60;;;;;;;14.23;34.00;99392.02;223640;183;145872;-68
2023/04/30 19:27:26;;;;;;;8.20;4.00;;;;;;;14.11;33.54;99393.06;223680;183;138888;-64
2023/04/30 19:32:30;;;;;;;235.20;196.10;;;;;;;14.01;33.76;99397.48;223638;184;136420;-64
2023/04/30 19:37:33;;;;;;;6.20;3.40;;;;;;;14.12;34.64;99402.41;223631;183;145333;-66
2023/04/30 19:42:38;;;;;;;11.20;3.80;;;;;;;13.99;33.70;99406.91;223658;183;139637;-65
2023/04/30 19:47:41;;;;;;;9.80;4.60;;;;;;;13.85;33.68;99411.30;223729;184;137007;-65
2023/04/30 19:52:44;;;;;;;9.90;4.20;;;;;;;13.71;34.18;99411.37;223689;183;145967;-65
2023/04/30 19:57:47;;;;;;;11.20;3.70;;;;;;;13.59;34.47;99411.49;223592;183;138390;-65
2023/04/30 20:02:50;;;;;;;6.70;3.60;;;;;;;13.49;34.34;99414.09;223653;183;136720;-67
2023/04/30 20:07:54;;;;;;;7.30;3.90;;;;;;;13.40;34.52;99413.84;223572;183;146043;-68
2023/04/30 20:12:57;;;;;;;10.50;4.80;;;;;;;13.24;34.62;99417.58;223565;183;138496;-64
2023/04/30 20:18:00;;;;;;;11.50;4.50;;;;;;;13.12;35.11;99421.58;223639;183;137611;-67
2023/04/30 20:23:15;;;;;;;9.20;3.50;;;;;;;13.06;35.23;99424.45;222563;183;146200;-65
2023/04/30 20:28:18;;;;;;;16.10;8.60;;;;;;;13.06;36.59;99431.07;223687;183;139788;-65
2023/04/30 20:33:21;;;;;;;7.70;3.80;;;;;;;13.17;36.36;99429.23;223607;183;137832;-66
2023/04/30 20:38:25;;;;;;;8.70;3.70;;;;;;;13.11;36.09;99436.25;223697;183;146511;-63
2023/04/30 20:43:28;;;;;;;7.10;3.40;;;;;;;13.06;36.09;99439.79;223592;183;140123;-65
2023/04/30 20:48:32;;;;;;;8.40;3.60;;;;;;;12.99;36.10;99439.15;223642;183;136357;-66
2023/04/30 20:53:35;;;;;;;7.90;3.80;;;;;;;12.93;36.04;99441.88;223719;183;145224;-68
2023/04/30 20:58:38;;;;;;;10.70;5.20;;;;;;;12.83;36.54;99442.52;223660;183;139169;-66
2023/04/30 21:03:41;;;;;;;8.20;4.00;;;;;;;12.74;37.67;99445.59;223604;184;137364;-66
2023/04/30 21:08:45;;;;;;;8.80;4.00;;;;;;;12.65;36.90;99447.59;223423;183;144597;-68
2023/04/30 21:13:48;;;;;;;7.60;3.80;;;;;;;12.53;37.43;99448.17;223653;183;139368;-66
2023/04/30 21:18:53;;;;;;;10.20;4.20;;;;;;;12.38;38.90;99451.65;223634;182;136883;-64
2023/04/30 21:23:59;;;;;;;50.90;42.70;;;;;;;12.24;40.14;99459.58;223682;184;145775;-65
2023/04/30 21:29:03;;;;;;;7.80;4.10;;;;;;;12.30;41.18;99459.79;223570;183;139378;-65
2023/04/30 21:34:06;;;;;;;9.00;4.20;;;;;;;12.24;39.36;99468.00;223589;183;137366;-69
2023/04/30 21:39:09;;;;;;;8.80;4.30;;;;;;;12.06;40.10;99473.38;223583;183;145765;-70
2023/04/30 21:44:12;;;;;;;10.30;4.40;;;;;;;11.87;40.65;99477.16;223637;183;138298;-66
2023/04/30 21:49:15;;;;;;;10.00;4.60;;;;;;;11.71;41.25;99479.86;223587;184;137258;-66
2023/04/30 21:54:18;;;;;;;10.70;4.80;;;;;;;11.60;41.38;99488.70;223636;184;145391;-71
2023/04/30 21:59:21;;;;;;;9.90;4.80;;;;;;;11.47;41.92;99488.42;223584;184;139216;-68
2023/04/30 22:04:25;;;;;;;9.50;4.90;;;;;;;11.35;42.24;99494.06;223525;184;140504;-67
2023/04/30 22:09:30;;;;;;;8.70;4.80;;;;;;;11.24;42.62;99494.54;223562;184;145320;-66
2023/04/30 22:14:34;;;;;;;9.50;5.00;;;;;;;11.12;43.07;99497.37;223612;183;139559;-66
2023/04/30 22:19:59;;;;;;;11.90;5.40;;;;;;;11.04;43.43;99498.16;219372;193;665948;-68
2023/04/30 22:25:03;;;;;;;9.60;4.80;;;;;;;10.92;43.73;99504.50;220753;184;136860;-72
2023/04/30 22:30:08;;;;;;;10.20;4.80;;;;;;;10.86;44.44;99513.20;223575;183;143937;-69
2023/04/30 22:35:15;;;;;;;8.80;4.50;;;;;;;10.78;44.65;99511.87;223762;182;140416;-65
2023/04/30 22:45:19;;;;;;;9.60;4.70;;;;;;;10.62;45.27;99523.56;221333;192;677122;-71
2023/04/30 22:50:22;;;;;;;10.30;4.60;;;;;;;10.51;45.41;99524.52;223557;183;137303;-75
2023/04/30 22:55:26;;;;;;;8.80;4.40;;;;;;;10.44;45.61;99523.66;223642;183;144295;-72
2023/04/30 23:00:30;;;;;;;8.40;4.50;;;;;;;10.37;45.87;99528.99;223519;183;138191;-74
2023/04/30 23:05:33;;;;;;;9.00;4.40;;;;;;;10.29;46.35;99528.33;223409;183;136332;-68
2023/04/30 23:10:36;;;;;;;10.60;4.50;;;;;;;10.22;46.64;99532.41;223410;185;143869;-67
2023/04/30 23:15:40;;;;;;;7.70;3.90;;;;;;;10.18;46.68;99531.37;222415;184;138435;-74
2023/04/30 23:20:46;;;;;;;10.10;4.40;;;;;;;10.14;46.54;99535.46;221235;185;137450;-69
2023/04/30 23:25:50;;;;;;;7.80;4.10;;;;;;;10.09;46.81;99530.96;223461;185;143871;-73
2023/04/30 23:30:53;;;;;;;7.50;4.20;;;;;;;10.04;47.22;99532.44;223330;185;138968;-64
2023/04/30 23:35:57;;;;;;;8.30;4.30;;;;;;;9.95;47.89;99530.61;223500;185;136571;-66
2023/04/30 23:41:01;;;;;;;8.50;4.70;;;;;;;9.88;48.09;99532.23;223467;185;145825;-68
2023/04/30 23:46:05;;;;;;;12.00;5.60;;;;;;;9.80;48.59;99538.49;223637;182;139298;-69
2023/04/30 23:51:08;;;;;;;12.80;5.30;;;;;;;9.72;49.15;99539.07;223658;183;137848;-64
2023/04/30 23:56:12;;;;;;;9.80;5.00;;;;;;;9.65;49.66;99539.96;223573;184;147248;-72
